Aviation Digital Data Service (ADDS)

Output produced by METARs form (1258 UTC 21 February 2018)
found at http://www.aviationweather.gov/adds/metars/
 
TAF AMD KMCF 201155Z 2011/2115 12012KT 9999 FEW080 QNH3023INS 
     BECMG 2014/2015 12010G15KT 9999 SCT100 QNH3022INS 
     BECMG 2023/2024 12012KT 9999 SCT150 QNH3025INS 
     BECMG 2103/2104 12009KT 9999 FEW150 QNH3030INS 
     BECMG 2114/2115 10010G15KT 9999 FEW030 QNH3039INS TX29/2021Z TN20/2012Z
       
KMCO 201120Z 2012/2118 09008KT P6SM SKC 
     FM201500 12011KT P6SM SCT030 
     FM202000 11011KT P6SM SCT035 BKN050 
     FM210200 10006KT P6SM FEW040 SCT050 
     FM211500 11010KT P6SM SCT045
       
KMEM 201454Z 2015/2118 18015KT P6SM SCT020 BKN200 
     FM201600 18018G25KT P6SM BKN020 OVC035 
     FM210600 20013G25KT P6SM VCSH BKN035 OVC200 
     FM211300 35010G22KT 3SM RA BR OVC005
       
TAF KMGE 201400Z 2014/2120 13006KT 4800 BR OVC002 QNH3033INS 
     TEMPO 2014/2017 OVC007 
     BECMG 2016/2017 14006KT 9999 NSW OVC010 QNH3032INS 
     BECMG 2020/2021 15006KT 8000 -SHRA BKN025 QNH3031INS 
     BECMG 2104/2105 09006KT 3200 BR OVC007 QNH3035INS 
     BECMG 2117/2118 16010G15KT 9999 NSW OVC010 QNH3031INS TX23/2020Z TN16/2014Z
       
KMIA 201502Z 2015/2118 10015KT P6SM VCSH FEW025 SCT050 
     TEMPO 2015/2017 6SM -SHRA SCT015 BKN025 
     FM202100 11013G23KT P6SM FEW025 SCT050 
     FM210000 10011KT P6SM FEW025 SCT050
       
TAF AMD KMIB 201328Z 2013/2115 31009KT 9999 OVC014 620149 QNH3005INS 
     BECMG 2014/2015 31009KT 9999 SCT015 BKN020 OVC040 620209 QNH3008INS 
     BECMG 2017/2018 28012KT 9999 BKN040 620404 QNH3008INS 
     BECMG 2022/2023 26009KT 9999 FEW040 SCT120 QNH3011INS 
     BECMG 2105/2106 25006KT 9999 SCT040 QNH3022INS TXM11/2021Z TNM18/2013Z
       
KMKE 201259Z 2013/2118 32007KT 1SM -RA BR SCT002 OVC005 
     FM201400 26004KT 2SM -RA BR BKN004 OVC015 
     FM201700 26006KT 3SM BR VCSH OVC010 
     FM202000 26008KT 2SM RA BR OVC010 
     FM210100 29009KT 3SM -RA BR OVC010 
     FM210600 31012KT 6SM BR SCT015 OVC070
       
TAF AMD KMMT 201330Z 2013/2114 10002KT 0400 FG OVC002 QNH3038INS 
     BECMG 2014/2015 15006KT 4800 BR BKN005 OVC025 QNH3038INS 
     BECMG 2015/2016 15012KT 9999 NSW FEW015 BKN030 QNH3038INS 
     BECMG 2021/2022 15006KT 9999 BKN025 BKN040 QNH3042INS 
     BECMG 2105/2106 16006KT 8000 BR BKN005 BKN015 QNH3045INS 
     TEMPO 2110/2114 2400 BR OVC002 TX24/2020Z TN16/2013Z
       
KMSP 201414Z 2014/2118 33009KT P6SM -FZDZSN BKN010 OVC020 
     FM201600 33009KT P6SM OVC015 
     FM202000 31009KT P6SM OVC020 
     FM210000 30008KT P6SM BKN035 
     FM210400 30010KT P6SM SCT040 
     FM211000 27004KT P6SM FEW250
       
KMSY 201314Z 2013/2118 12009KT P6SM FEW012 SCT250 
     FM201500 15012KT P6SM VCSH BKN035 
     FM202100 17012KT P6SM BKN080 
     FM210700 14007KT P6SM SCT020 
     FM211200 14006KT P6SM BKN020 
     PROB30 2113/2117 -SHRA OVC008
       
TAF AMD KMTC 201440Z 2014/2115 23012KT 4800 -RA BR SCT020 OVC040 520203 QNH2992INS 
     TEMPO 2015/2023 25012G18KT 
     BECMG 2107/2108 33012G18KT 3200 -RA BR OVC003 WS020/21055KT QNH3002INS 
     BECMG 2109/2110 36012G18KT 3200 -RA BR OVC003 QNH3003INS 
     TEMPO 2114/2115 -FZRA 690001 TX17/2021Z TN03/2109Z
       
TAF KMUO 201000Z 2010/2116 30010G15KT 9999 FEW020 QNH3001INS 
     TEMPO 2010/2015 30015G25KT 520009 
     BECMG 2017/2018 30009KT 9999 SKC QNH3010INS 
     BECMG 2102/2103 12009KT 9999 SCT100 BKN250 QNH3010INS 
     BECMG 2114/2115 12009KT 9999 SCT050 BKN100 QNH3011INS TX00/2021Z TNM12/2014Z
       
TAF KMXF 201200Z 2012/2118 VRB06KT 8000 BR FEW055 QNH3025INS 
     BECMG 2016/2017 15012G18KT 9999 NSW SCT020 BKN025 QNH3026INS 
     BECMG 2021/2022 18009KT 9000 -SHRA BKN025 QNH3031INS 
     BECMG 2104/2105 VRB06KT 6000 BR BKN005 QNH3031INS 
     BECMG 2116/2117 17009KT 9999 NSW OVC020 QNH3038INS TX25/2017Z TN13/2012Z